24h
CUSTOMER SERVICE:
Saartelennuliinid: +372 58856336 (24/7)
Airport ticket info +372 6058887; +372 55603687

07.01.2019 hommikune Transaviabaltika lend KTB670 kell 07:00 (kohalik aeg) Tallinn - Kärdla väljalend ja KTB671 kell 07:45 Kärdla – Tallinn väljalend jääb ära. Lennu ära jäämise põhjustab ilmastikuolu Kärdla lennuväljal. Kõikidele reisijatele tagastatakse piletiraha või vormistatakse pilet hilisemale lennule. Lisainformatsioon 58856336. Informatsiooni vahetus: [email protected]

EEKA Kärdla lennuväli
FCEO32 EETN 070400 
TAF EEKA 070400Z 0705/0711 24009KT 5000 RADZ BKN003 OVC005 TEMPO 
    0705/0708 0700 DZ FG VV003 BECMG 0708/0709 9999 NSW BKN008= 
METAR EEKA 070450Z 22007KT 5000 -RA OVC003 03/02 Q1018= 
Date: 
07/01/2019